createdAt,value
2022-12-11T00:01:13.178Z,12.13
2022-12-11T00:03:39.766Z,12.88
2022-12-11T00:06:12.399Z,13.25
2022-12-11T00:08:39.660Z,13.43
2022-12-11T00:11:08.872Z,15.32
2022-12-11T00:13:35.629Z,12.30
2022-12-11T00:16:02.217Z,12.27
2022-12-11T00:18:28.680Z,12.73
2022-12-11T00:20:55.209Z,12.23
2022-12-11T00:23:21.670Z,12.70
2022-12-11T00:25:48.197Z,13.82
2022-12-11T00:28:18.832Z,12.68
2022-12-11T00:30:46.555Z,12.63
2022-12-11T00:33:14.497Z,13.47
2022-12-11T00:35:43.749Z,13.60
2022-12-11T00:38:15.924Z,14.75
2022-12-11T00:40:42.800Z,13.27
2022-12-11T00:43:09.367Z,12.60
2022-12-11T00:45:40.950Z,12.97
2022-12-11T00:48:08.932Z,13.18
2022-12-11T00:50:36.275Z,14.63
2022-12-11T00:53:05.211Z,13.82
2022-12-11T00:55:32.313Z,15.45
2022-12-11T00:57:58.776Z,14.00
2022-12-11T01:00:25.250Z,15.13
2022-12-11T01:02:51.745Z,16.48
2022-12-11T01:05:18.362Z,13.68
2022-12-11T01:07:44.906Z,14.18
2022-12-11T01:10:25.418Z,15.60
2022-12-11T01:13:06.565Z,14.65
2022-12-11T01:15:42.226Z,15.30
2022-12-11T01:18:10.187Z,14.30
2022-12-11T01:20:39.901Z,15.13
2022-12-11T01:23:06.701Z,15.53
2022-12-11T01:25:35.647Z,15.77
2022-12-11T01:28:02.087Z,15.48
2022-12-11T01:30:28.653Z,14.77
2022-12-11T01:32:55.080Z,16.27
2022-12-11T01:35:21.982Z,14.97
2022-12-11T01:37:49.053Z,14.50
2022-12-11T01:40:18.182Z,15.27
2022-12-11T01:42:44.615Z,14.98
2022-12-11T01:45:29.203Z,15.13
2022-12-11T01:48:18.726Z,15.40
2022-12-11T01:51:05.738Z,14.45
2022-12-11T01:53:39.043Z,15.23
2022-12-11T01:56:06.689Z,15.02
2022-12-11T01:58:44.122Z,14.35
2022-12-11T02:01:16.976Z,14.77
2022-12-11T02:03:43.748Z,15.45
2022-12-11T02:06:36.979Z,14.82
2022-12-11T02:09:07.355Z,14.88
2022-12-11T02:12:03.683Z,15.05
2022-12-11T02:14:44.663Z,15.20
2022-12-11T02:17:23.557Z,15.48
2022-12-11T02:19:59.898Z,15.18
2022-12-11T02:22:30.398Z,14.50
2022-12-11T02:25:20.836Z,14.48
2022-12-11T02:28:31.253Z,14.70
2022-12-11T02:31:04.342Z,14.35
2022-12-11T02:33:44.211Z,14.52
2022-12-11T02:36:12.036Z,14.55
2022-12-11T02:38:41.745Z,13.35
2022-12-11T02:41:11.429Z,14.07
2022-12-11T02:43:39.305Z,14.23
2022-12-11T02:46:07.986Z,14.02
2022-12-11T02:48:36.956Z,15.55
2022-12-11T02:51:06.163Z,13.52
2022-12-11T02:53:41.328Z,14.40
2022-12-11T02:56:34.437Z,14.15
2022-12-11T02:59:06.715Z,15.15
2022-12-11T03:01:35.976Z,14.57
2022-12-11T03:04:02.612Z,14.43
2022-12-11T03:06:36.841Z,15.10
2022-12-11T03:09:05.384Z,15.80
2022-12-11T03:11:31.855Z,16.23
2022-12-11T03:14:02.727Z,16.48
2022-12-11T03:16:37.028Z,17.27
2022-12-11T03:19:41.303Z,16.00
2022-12-11T03:22:12.802Z,15.52
2022-12-11T03:24:48.790Z,16.85
2022-12-11T03:27:25.925Z,16.38
2022-12-11T03:30:02.505Z,17.17
2022-12-11T03:32:35.627Z,16.63
2022-12-11T03:35:31.781Z,15.55
2022-12-11T03:38:03.035Z,15.07
2022-12-11T03:40:33.296Z,14.93
2022-12-11T03:43:00.676Z,14.32
2022-12-11T03:45:30.259Z,14.87
2022-12-11T03:47:59.888Z,15.75
2022-12-11T03:50:29.767Z,15.35
2022-12-11T03:52:57.556Z,15.13
2022-12-11T03:55:24.847Z,14.50
2022-12-11T03:57:51.335Z,14.63
2022-12-11T04:00:20.263Z,16.05
2022-12-11T04:03:11.356Z,16.40
2022-12-11T04:05:41.263Z,14.52
2022-12-11T04:08:07.826Z,15.00
2022-12-11T04:10:36.935Z,15.17
2022-12-11T04:13:03.459Z,14.40
2022-12-11T04:15:29.889Z,15.45
2022-12-11T04:18:14.984Z,15.35
2022-12-11T04:20:59.695Z,15.52
2022-12-11T04:23:45.014Z,14.93
2022-12-11T04:26:14.813Z,15.55
2022-12-11T04:28:42.671Z,15.63
2022-12-11T04:31:19.225Z,17.45
2022-12-11T04:33:46.225Z,16.00
2022-12-11T04:36:13.286Z,15.47
2022-12-11T04:38:40.120Z,15.05
2022-12-11T04:41:10.767Z,14.73
2022-12-11T04:43:37.604Z,14.55
2022-12-11T04:46:11.623Z,15.85
2022-12-11T04:48:39.024Z,16.20
2022-12-11T04:51:06.125Z,21.38
2022-12-11T04:53:32.916Z,17.52
2022-12-11T04:55:59.385Z,17.45
2022-12-11T04:58:26.192Z,17.08
2022-12-11T05:00:53.249Z,16.83
2022-12-11T05:03:20.595Z,17.52
2022-12-11T05:05:52.090Z,18.42
2022-12-11T05:08:19.563Z,17.42
2022-12-11T05:10:55.361Z,16.48
2022-12-11T05:13:21.865Z,19.33
2022-12-11T05:15:48.490Z,18.98
2022-12-11T05:18:15.075Z,17.27
2022-12-11T05:20:41.470Z,17.65
2022-12-11T05:23:07.898Z,17.17
2022-12-11T05:25:34.294Z,18.13
2022-12-11T05:28:00.706Z,19.58
2022-12-11T05:30:27.116Z,17.90
2022-12-11T05:32:53.502Z,18.85
2022-12-11T05:35:20.011Z,17.15
2022-12-11T05:37:46.494Z,18.70
2022-12-11T05:40:12.988Z,16.33
2022-12-11T05:42:39.404Z,17.02
2022-12-11T05:45:06.428Z,16.45
2022-12-11T05:47:32.911Z,17.02
2022-12-11T05:49:59.310Z,17.27
2022-12-11T05:52:25.758Z,19.60
2022-12-11T05:54:52.213Z,17.40
2022-12-11T05:57:18.606Z,16.60
2022-12-11T05:59:45.277Z,17.10
2022-12-11T06:02:11.696Z,16.40
2022-12-11T06:04:38.154Z,15.10
2022-12-11T06:07:04.588Z,16.42
2022-12-11T06:09:30.981Z,17.23
2022-12-11T06:11:57.351Z,17.55
2022-12-11T06:14:23.687Z,17.37
2022-12-11T06:16:50.381Z,18.00
2022-12-11T06:19:20.224Z,18.73
2022-12-11T06:21:48.817Z,17.08
2022-12-11T06:24:15.378Z,18.25
2022-12-11T06:26:41.833Z,17.20
2022-12-11T06:29:12.570Z,17.77
2022-12-11T06:31:39.686Z,17.90
2022-12-11T06:34:06.143Z,18.13
2022-12-11T06:36:32.599Z,17.25
2022-12-11T06:38:59.031Z,18.47
2022-12-11T06:41:25.838Z,19.05
2022-12-11T06:43:52.368Z,18.90
2022-12-11T06:46:19.936Z,18.70
2022-12-11T06:48:47.495Z,18.60
2022-12-11T06:51:20.021Z,20.20
2022-12-11T06:53:54.723Z,18.80
2022-12-11T06:56:21.945Z,23.95
2022-12-11T06:58:48.503Z,27.20
2022-12-11T07:01:23.906Z,18.02
2022-12-11T07:03:56.302Z,18.73
2022-12-11T07:06:23.822Z,25.45
2022-12-11T07:08:50.658Z,18.95
2022-12-11T07:11:18.967Z,20.23
2022-12-11T07:13:46.178Z,17.85
2022-12-11T07:16:15.661Z,18.20
2022-12-11T07:18:47.063Z,18.33
2022-12-11T07:21:14.469Z,17.35
2022-12-11T07:23:41.525Z,17.00
2022-12-11T07:26:10.610Z,16.85
2022-12-11T07:28:37.094Z,16.57
2022-12-11T07:31:07.975Z,16.75
2022-12-11T07:33:34.831Z,16.90
2022-12-11T07:36:03.335Z,17.50
2022-12-11T07:38:30.050Z,17.23
2022-12-11T07:40:56.827Z,19.07
2022-12-11T07:43:23.258Z,17.98
2022-12-11T07:45:49.657Z,18.92
2022-12-11T07:48:16.179Z,18.60
2022-12-11T07:50:42.600Z,17.75
2022-12-11T07:53:08.994Z,19.00
2022-12-11T07:55:35.413Z,18.35
2022-12-11T07:58:01.925Z,19.60
2022-12-11T08:00:28.362Z,19.67
2022-12-11T08:02:54.863Z,17.83
2022-12-11T08:05:21.498Z,17.23
2022-12-11T08:07:47.960Z,17.38
2022-12-11T08:10:14.393Z,17.75
2022-12-11T08:12:40.764Z,16.38
2022-12-11T08:15:07.874Z,17.52
2022-12-11T08:17:39.871Z,18.43
2022-12-11T08:20:06.974Z,17.50
2022-12-11T08:22:34.070Z,20.90
2022-12-11T08:25:00.500Z,18.92
2022-12-11T08:27:26.929Z,18.52
2022-12-11T08:29:53.306Z,18.73
2022-12-11T08:32:19.806Z,17.05
2022-12-11T08:34:46.325Z,20.15
2022-12-11T08:37:13.605Z,18.33
2022-12-11T08:39:40.064Z,17.95
2022-12-11T08:42:07.127Z,20.17
2022-12-11T08:44:33.542Z,17.20
2022-12-11T08:46:59.900Z,17.38
2022-12-11T08:49:28.672Z,17.15
2022-12-11T08:51:59.231Z,16.67
2022-12-11T08:54:25.731Z,15.87
2022-12-11T08:56:56.408Z,16.45
2022-12-11T08:59:25.554Z,16.58
2022-12-11T09:01:52.291Z,17.13
2022-12-11T09:04:19.304Z,19.83
2022-12-11T09:06:45.798Z,18.27
2022-12-11T09:09:12.735Z,16.10
2022-12-11T09:11:39.218Z,16.38
2022-12-11T09:14:08.013Z,16.75
2022-12-11T09:16:40.471Z,16.42
2022-12-11T09:19:10.975Z,16.77
2022-12-11T09:21:37.596Z,15.35
2022-12-11T09:24:04.409Z,16.70
2022-12-11T09:26:30.876Z,15.45
2022-12-11T09:28:57.964Z,16.27
2022-12-11T09:31:30.542Z,15.43
2022-12-11T09:33:59.518Z,17.25
2022-12-11T09:36:26.451Z,16.98
2022-12-11T09:38:53.576Z,17.40
2022-12-11T09:41:29.488Z,17.73
2022-12-11T09:44:06.799Z,16.20
2022-12-11T09:46:35.710Z,15.63
2022-12-11T09:49:04.656Z,15.98
2022-12-11T09:51:39.158Z,23.20
2022-12-11T09:54:05.980Z,17.40
2022-12-11T09:56:53.640Z,18.47
2022-12-11T09:59:37.421Z,17.95
2022-12-11T10:02:22.316Z,15.30
2022-12-11T10:05:13.710Z,15.10
2022-12-11T10:07:56.976Z,13.43
2022-12-11T10:10:29.622Z,14.30
2022-12-11T10:13:02.246Z,13.32
2022-12-11T10:15:31.606Z,14.52
2022-12-11T10:18:04.946Z,15.07
2022-12-11T10:20:36.515Z,13.50
2022-12-11T10:23:06.260Z,14.30
2022-12-11T10:25:36.682Z,15.35
2022-12-11T10:28:14.584Z,15.70
2022-12-11T10:31:02.577Z,15.70
2022-12-11T10:34:00.511Z,15.40
2022-12-11T10:36:38.716Z,14.60
2022-12-11T10:39:16.807Z,14.73
2022-12-11T10:41:46.075Z,19.30
2022-12-11T10:44:17.617Z,23.73
2022-12-11T10:46:45.534Z,16.60
2022-12-11T10:49:23.987Z,14.30
2022-12-11T10:51:51.941Z,13.20
2022-12-11T10:54:32.443Z,11.77
2022-12-11T10:57:02.211Z,11.25
2022-12-11T10:59:34.159Z,11.52
2022-12-11T11:02:01.229Z,10.60
2022-12-11T11:04:36.703Z,10.68
2022-12-11T11:07:13.470Z,11.82
2022-12-11T11:09:40.627Z,11.48
2022-12-11T11:12:22.439Z,10.45
2022-12-11T11:15:02.965Z,11.03
2022-12-11T11:17:35.178Z,17.30
2022-12-11T11:20:12.031Z,15.57
2022-12-11T11:22:46.390Z,10.70
2022-12-11T11:25:25.151Z,10.70
2022-12-11T11:27:55.996Z,12.40
2022-12-11T11:30:28.496Z,11.48
2022-12-11T11:33:00.823Z,11.20
2022-12-11T11:35:29.848Z,11.10
2022-12-11T11:38:13.125Z,11.60
2022-12-11T11:40:50.062Z,12.07
2022-12-11T11:43:29.100Z,13.13
2022-12-11T11:46:01.891Z,12.50
2022-12-11T11:48:50.053Z,12.02
2022-12-11T11:51:37.591Z,11.30
2022-12-11T11:54:18.521Z,11.53
2022-12-11T11:56:46.294Z,10.90
2022-12-11T11:59:28.084Z,11.32
2022-12-11T12:01:56.785Z,11.60
2022-12-11T12:04:24.425Z,10.88
2022-12-11T12:07:09.035Z,12.27
2022-12-11T12:09:54.384Z,12.38
2022-12-11T12:13:01.333Z,14.40
2022-12-11T12:15:58.488Z,14.48
2022-12-11T12:18:27.612Z,13.45
2022-12-11T12:21:08.883Z,16.47
2022-12-11T12:23:50.231Z,14.77
2022-12-11T12:26:30.280Z,14.73
2022-12-11T12:29:21.386Z,14.57
2022-12-11T12:32:08.289Z,12.23
2022-12-11T12:35:03.726Z,12.97
2022-12-11T12:37:30.207Z,11.88
2022-12-11T12:40:08.709Z,12.25
2022-12-11T12:43:00.173Z,11.55
2022-12-11T12:45:33.165Z,11.07
2022-12-11T12:47:59.673Z,12.97
2022-12-11T12:50:40.351Z,11.18
2022-12-11T12:53:10.132Z,11.50
2022-12-11T12:55:37.071Z,11.43
2022-12-11T12:58:07.438Z,11.75
2022-12-11T13:00:40.668Z,12.47
2022-12-11T13:03:17.098Z,12.63
2022-12-11T13:05:54.816Z,12.90
2022-12-11T13:08:29.856Z,11.75
2022-12-11T13:11:06.010Z,10.65
2022-12-11T13:13:37.493Z,12.97
2022-12-11T13:16:16.173Z,12.68
2022-12-11T13:18:45.130Z,11.52
2022-12-11T13:21:27.068Z,11.38
2022-12-11T13:23:54.365Z,12.85
2022-12-11T13:26:32.016Z,11.13
2022-12-11T13:28:58.972Z,12.90
2022-12-11T13:31:35.604Z,11.23
2022-12-11T13:34:20.527Z,11.13
2022-12-11T13:36:50.532Z,10.73
2022-12-11T13:39:27.755Z,10.83
2022-12-11T13:42:00.027Z,11.15
2022-12-11T13:44:33.749Z,10.40
2022-12-11T13:47:03.030Z,10.35
2022-12-11T13:49:38.518Z,9.52
2022-12-11T13:52:06.055Z,10.07
2022-12-11T13:54:36.615Z,10.63
2022-12-11T13:57:17.015Z,10.70
2022-12-11T13:59:53.038Z,11.93
2022-12-11T14:02:25.710Z,10.48
2022-12-11T14:04:56.844Z,10.00
2022-12-11T14:07:46.829Z,10.95
2022-12-11T14:10:17.831Z,10.88
2022-12-11T14:13:08.155Z,10.20
2022-12-11T14:15:36.264Z,10.45
2022-12-11T14:18:05.461Z,10.43
2022-12-11T14:20:34.069Z,10.60
2022-12-11T14:23:18.185Z,10.40
2022-12-11T14:26:19.873Z,10.55
2022-12-11T14:28:46.535Z,9.93
2022-12-11T14:31:18.074Z,11.57
2022-12-11T14:33:49.568Z,15.25
2022-12-11T14:36:17.821Z,11.85
2022-12-11T14:38:48.093Z,11.82
2022-12-11T14:41:27.055Z,9.80
2022-12-11T14:43:59.440Z,9.77
2022-12-11T14:46:46.238Z,10.23
2022-12-11T14:49:26.919Z,10.30
2022-12-11T14:51:56.433Z,10.23
2022-12-11T14:54:31.799Z,9.38
2022-12-11T14:57:02.847Z,9.20
2022-12-11T15:02:27.692Z,11.18
2022-12-11T15:05:02.294Z,10.77
2022-12-11T15:07:29.049Z,9.57
2022-12-11T15:09:56.712Z,8.87
2022-12-11T15:12:24.051Z,8.55
2022-12-11T15:14:57.263Z,9.10
2022-12-11T15:17:26.047Z,14.60
2022-12-11T15:20:02.744Z,12.18
2022-12-11T15:22:32.181Z,10.07
2022-12-11T15:24:59.441Z,9.90
2022-12-11T15:27:37.685Z,10.05
2022-12-11T15:30:28.086Z,11.88
2022-12-11T15:33:04.799Z,11.13
2022-12-11T15:35:31.311Z,10.00
2022-12-11T15:37:59.483Z,9.95
2022-12-11T15:40:27.094Z,11.68
2022-12-11T15:42:54.991Z,9.77
2022-12-11T15:45:24.542Z,13.20
2022-12-11T15:47:52.166Z,11.53
2022-12-11T15:50:21.365Z,18.42
2022-12-11T15:52:48.785Z,12.95
2022-12-11T15:55:17.384Z,13.93
2022-12-11T15:57:55.661Z,14.88
2022-12-11T16:00:24.018Z,15.57
2022-12-11T16:02:51.603Z,18.48
2022-12-11T16:05:18.145Z,18.25
2022-12-11T16:07:44.754Z,18.80
2022-12-11T16:10:14.884Z,16.95
2022-12-11T16:12:42.031Z,28.10
2022-12-11T16:15:09.317Z,23.35
2022-12-11T16:17:36.130Z,23.60
2022-12-11T16:20:02.650Z,23.58
2022-12-11T16:22:29.148Z,22.10
2022-12-11T16:24:55.604Z,22.50
2022-12-11T16:27:23.336Z,26.17
2022-12-11T16:29:50.096Z,21.80
2022-12-11T16:32:16.986Z,21.10
2022-12-11T16:34:43.520Z,21.77
2022-12-11T16:37:10.008Z,23.97
2022-12-11T16:39:38.006Z,22.90
2022-12-11T16:42:05.765Z,20.33
2022-12-11T16:44:32.494Z,20.25
2022-12-11T16:46:58.951Z,21.85
2022-12-11T16:49:25.338Z,20.27
2022-12-11T16:51:51.679Z,20.23
2022-12-11T16:54:18.328Z,20.73
2022-12-11T16:56:45.089Z,21.00
2022-12-11T16:59:12.861Z,20.17
2022-12-11T17:01:39.965Z,18.43
2022-12-11T17:04:06.562Z,18.67
2022-12-11T17:06:33.020Z,19.30
2022-12-11T17:08:59.588Z,19.25
2022-12-11T17:11:26.217Z,18.83
2022-12-11T17:13:54.896Z,20.67
2022-12-11T17:16:22.287Z,20.55
2022-12-11T17:18:48.809Z,21.13
2022-12-11T17:21:17.584Z,20.70
2022-12-11T17:23:44.977Z,21.70
2022-12-11T17:26:11.944Z,19.83
2022-12-11T17:28:39.240Z,21.67
2022-12-11T17:31:07.330Z,22.98
2022-12-11T17:33:33.833Z,23.88
2022-12-11T17:36:05.658Z,36.22
2022-12-11T17:38:32.539Z,25.30
2022-12-11T17:40:59.143Z,23.80
2022-12-11T17:43:25.908Z,34.90
2022-12-11T17:45:52.546Z,23.48
2022-12-11T17:48:22.340Z,21.52
2022-12-11T17:50:50.959Z,20.17
2022-12-11T17:53:19.876Z,19.30
2022-12-11T17:55:47.550Z,21.35
2022-12-11T17:58:20.714Z,21.48
2022-12-11T18:00:49.921Z,23.50
2022-12-11T18:03:16.846Z,21.80
2022-12-11T18:05:45.593Z,19.83
2022-12-11T18:08:17.525Z,27.05
2022-12-11T18:10:45.304Z,23.00
2022-12-11T18:13:12.450Z,23.40
2022-12-11T18:15:39.587Z,20.77
2022-12-11T18:18:06.956Z,20.23
2022-12-11T18:20:34.358Z,19.67
2022-12-11T18:23:01.057Z,20.88
2022-12-11T18:25:28.112Z,19.70
2022-12-11T18:27:57.657Z,18.30
2022-12-11T18:30:25.715Z,18.30
2022-12-11T18:32:52.180Z,19.58
2022-12-11T18:35:19.334Z,19.63
2022-12-11T18:37:45.690Z,19.17
2022-12-11T18:40:12.343Z,19.43
2022-12-11T18:42:38.925Z,18.55
2022-12-11T18:45:06.998Z,22.27
2022-12-11T18:47:34.079Z,21.23
2022-12-11T18:50:07.218Z,21.13
2022-12-11T18:52:34.793Z,19.80
2022-12-11T18:55:01.482Z,20.27
2022-12-11T18:57:27.922Z,21.15
2022-12-11T18:59:54.527Z,19.30
2022-12-11T19:02:21.665Z,19.63
2022-12-11T19:04:48.218Z,19.33
2022-12-11T19:07:14.634Z,18.70
2022-12-11T19:09:46.197Z,17.92
2022-12-11T19:12:14.468Z,17.88
2022-12-11T19:14:41.038Z,18.92
2022-12-11T19:17:07.470Z,19.27
2022-12-11T19:19:34.065Z,19.20
2022-12-11T19:22:00.592Z,19.05
2022-12-11T19:24:27.286Z,21.52
2022-12-11T19:26:53.809Z,19.48
2022-12-11T19:29:27.044Z,19.00
2022-12-11T19:31:55.537Z,22.10
2022-12-11T19:34:22.835Z,22.70
2022-12-11T19:36:49.606Z,24.55
2022-12-11T19:39:16.503Z,24.58
2022-12-11T19:41:43.242Z,21.47
2022-12-11T19:44:09.704Z,26.52
2022-12-11T19:46:36.243Z,29.00
2022-12-11T19:49:02.929Z,24.30
2022-12-11T19:51:36.359Z,20.92
2022-12-11T19:54:03.180Z,19.30
2022-12-11T19:56:29.930Z,19.25
2022-12-11T19:58:56.583Z,20.60
2022-12-11T20:01:30.150Z,18.50
2022-12-11T20:03:59.744Z,20.13
2022-12-11T20:06:34.327Z,18.47
2022-12-11T20:09:01.739Z,35.72
2022-12-11T20:11:28.526Z,21.88
2022-12-11T20:13:56.018Z,19.73
2022-12-11T20:16:45.847Z,21.83
2022-12-11T20:19:09.556Z,21.03
2022-12-11T20:21:36.128Z,20.92
2022-12-11T20:24:03.513Z,23.05
2022-12-11T20:26:32.454Z,20.95
2022-12-11T20:28:59.119Z,21.92
2022-12-11T20:31:26.262Z,20.17
2022-12-11T20:33:53.606Z,21.95
2022-12-11T20:36:22.515Z,74.75
2022-12-11T20:38:49.863Z,36.33
2022-12-11T20:41:20.459Z,26.65
2022-12-11T20:43:48.990Z,21.73
2022-12-11T20:46:17.388Z,25.48
2022-12-11T20:48:44.892Z,24.23
2022-12-11T20:51:13.203Z,29.08
2022-12-11T20:53:40.436Z,24.67
2022-12-11T20:56:12.458Z,21.87
2022-12-11T20:58:39.914Z,21.85
2022-12-11T21:01:06.831Z,21.60
2022-12-11T21:03:38.927Z,26.42
2022-12-11T21:06:09.212Z,26.50
2022-12-11T21:08:35.614Z,22.57
2022-12-11T21:11:02.558Z,21.08
2022-12-11T21:13:29.030Z,21.70
2022-12-11T21:15:56.783Z,21.40
2022-12-11T21:18:23.400Z,22.48
2022-12-11T21:20:49.830Z,20.50
2022-12-11T21:23:16.306Z,22.48
2022-12-11T21:25:43.020Z,21.83
2022-12-11T21:28:09.407Z,22.02
2022-12-11T21:30:40.074Z,22.70
2022-12-11T21:33:06.596Z,23.83
2022-12-11T21:35:32.957Z,22.90
2022-12-11T21:37:59.405Z,23.25
2022-12-11T21:40:25.836Z,22.23
2022-12-11T21:42:52.321Z,21.90
2022-12-11T21:48:05.356Z,22.50
2022-12-11T21:50:31.967Z,22.25
2022-12-11T21:52:58.868Z,21.17
2022-12-11T21:55:25.567Z,21.35
2022-12-11T21:57:54.408Z,22.70
2022-12-11T22:00:22.016Z,23.27
2022-12-11T22:02:49.547Z,22.27
2022-12-11T22:05:16.104Z,21.67
2022-12-11T22:07:42.542Z,22.77
2022-12-11T22:10:09.523Z,21.40
2022-12-11T22:12:36.006Z,20.92
2022-12-11T22:15:02.599Z,21.35
2022-12-11T22:17:29.036Z,21.75
2022-12-11T22:19:55.395Z,22.40
2022-12-11T22:22:21.833Z,21.63
2022-12-11T22:24:48.327Z,21.08
2022-12-11T22:27:19.043Z,25.10
2022-12-11T22:29:48.545Z,27.20
2022-12-11T22:32:15.047Z,26.48
2022-12-11T22:34:41.509Z,24.67
2022-12-11T22:37:08.080Z,25.45
2022-12-11T22:39:34.515Z,24.77
2022-12-11T22:42:01.011Z,23.58
2022-12-11T22:44:27.506Z,23.05
2022-12-11T22:46:53.980Z,21.87
2022-12-11T22:49:20.521Z,21.42
2022-12-11T22:51:47.278Z,21.10
2022-12-11T22:54:13.643Z,21.95
2022-12-11T22:56:40.297Z,21.00
2022-12-11T22:59:07.553Z,20.97
2022-12-11T23:01:34.353Z,22.52
2022-12-11T23:04:00.743Z,21.50
2022-12-11T23:06:27.412Z,22.48
2022-12-11T23:08:58.221Z,24.95
2022-12-11T23:11:28.744Z,22.97
2022-12-11T23:13:56.027Z,21.90
2022-12-11T23:16:26.411Z,20.60
2022-12-11T23:18:54.220Z,21.73
2022-12-11T23:21:21.731Z,20.92
2022-12-11T23:23:48.669Z,24.47
2022-12-11T23:26:15.960Z,32.28
2022-12-11T23:28:42.561Z,23.00
2022-12-11T23:31:09.449Z,25.88
2022-12-11T23:33:36.452Z,27.73
2022-12-11T23:36:03.411Z,22.83
2022-12-11T23:38:30.440Z,34.83
2022-12-11T23:40:59.659Z,31.13
2022-12-11T23:43:26.342Z,23.30
2022-12-11T23:45:53.191Z,22.08
2022-12-11T23:48:19.754Z,20.07
2022-12-11T23:50:46.674Z,19.90
2022-12-11T23:53:13.178Z,20.45
2022-12-11T23:55:41.651Z,21.30
2022-12-11T23:58:08.152Z,22.10
